sensor_id;sensor_type;location;lat;lon;timestamp;P1;durP1;ratioP1;P2;durP2;ratioP2
65558;SDS011;52203;51.998;5.140;2023-08-06T00:02:06;8.93;;;5.30;;
65558;SDS011;52203;51.998;5.140;2023-08-06T00:04:31;12.00;;;5.47;;
65558;SDS011;52203;51.998;5.140;2023-08-06T00:06:57;10.02;;;5.20;;
65558;SDS011;52203;51.998;5.140;2023-08-06T00:09:22;10.27;;;5.13;;
65558;SDS011;52203;51.998;5.140;2023-08-06T00:11:48;9.48;;;5.22;;
65558;SDS011;52203;51.998;5.140;2023-08-06T00:14:13;7.60;;;5.05;;
65558;SDS011;52203;51.998;5.140;2023-08-06T00:16:43;10.85;;;4.50;;
65558;SDS011;52203;51.998;5.140;2023-08-06T00:19:09;11.02;;;5.20;;
65558;SDS011;52203;51.998;5.140;2023-08-06T00:21:34;9.23;;;5.10;;
65558;SDS011;52203;51.998;5.140;2023-08-06T00:24:00;7.80;;;4.45;;
65558;SDS011;52203;51.998;5.140;2023-08-06T00:26:25;10.10;;;4.97;;
65558;SDS011;52203;51.998;5.140;2023-08-06T00:28:51;8.85;;;5.30;;
65558;SDS011;52203;51.998;5.140;2023-08-06T00:31:16;8.35;;;4.88;;
65558;SDS011;52203;51.998;5.140;2023-08-06T00:33:42;7.32;;;4.72;;
65558;SDS011;52203;51.998;5.140;2023-08-06T00:36:07;9.05;;;4.93;;
65558;SDS011;52203;51.998;5.140;2023-08-06T00:38:33;8.52;;;4.63;;
65558;SDS011;52203;51.998;5.140;2023-08-06T00:40:58;8.15;;;4.53;;
65558;SDS011;52203;51.998;5.140;2023-08-06T00:43:24;9.48;;;4.72;;
65558;SDS011;52203;51.998;5.140;2023-08-06T00:45:50;8.80;;;5.05;;
65558;SDS011;52203;51.998;5.140;2023-08-06T00:48:15;9.23;;;4.95;;
65558;SDS011;52203;51.998;5.140;2023-08-06T00:50:41;9.55;;;5.07;;
65558;SDS011;52203;51.998;5.140;2023-08-06T00:53:07;8.85;;;4.47;;
65558;SDS011;52203;51.998;5.140;2023-08-06T00:55:33;8.98;;;4.85;;
65558;SDS011;52203;51.998;5.140;2023-08-06T00:57:59;6.68;;;4.72;;
65558;SDS011;52203;51.998;5.140;2023-08-06T01:00:25;6.95;;;4.32;;
65558;SDS011;52203;51.998;5.140;2023-08-06T01:02:51;8.38;;;4.82;;
65558;SDS011;52203;51.998;5.140;2023-08-06T01:05:18;8.40;;;4.68;;
65558;SDS011;52203;51.998;5.140;2023-08-06T01:13:33;7.95;;;4.35;;
65558;SDS011;52203;51.998;5.140;2023-08-06T01:16:15;7.40;;;4.75;;
65558;SDS011;52203;51.998;5.140;2023-08-06T01:18:43;9.80;;;5.25;;
65558;SDS011;52203;51.998;5.140;2023-08-06T01:21:14;9.40;;;4.70;;
65558;SDS011;52203;51.998;5.140;2023-08-06T01:23:42;6.97;;;4.45;;
65558;SDS011;52203;51.998;5.140;2023-08-06T01:31:41;9.55;;;5.00;;
65558;SDS011;52203;51.998;5.140;2023-08-06T01:34:18;8.45;;;4.85;;
65558;SDS011;52203;51.998;5.140;2023-08-06T01:36:46;9.27;;;4.72;;
65558;SDS011;52203;51.998;5.140;2023-08-06T01:39:13;8.95;;;4.85;;
65558;SDS011;52203;51.998;5.140;2023-08-06T01:41:38;8.32;;;5.10;;
65558;SDS011;52203;51.998;5.140;2023-08-06T01:44:04;8.45;;;4.95;;
65558;SDS011;52203;51.998;5.140;2023-08-06T01:46:30;8.43;;;4.80;;
65558;SDS011;52203;51.998;5.140;2023-08-06T01:48:55;8.10;;;4.80;;
65558;SDS011;52203;51.998;5.140;2023-08-06T01:51:21;7.50;;;4.45;;
65558;SDS011;52203;51.998;5.140;2023-08-06T01:53:46;8.57;;;4.82;;
65558;SDS011;52203;51.998;5.140;2023-08-06T01:56:12;8.93;;;5.03;;
65558;SDS011;52203;51.998;5.140;2023-08-06T01:58:37;7.70;;;4.57;;
65558;SDS011;52203;51.998;5.140;2023-08-06T02:01:03;7.88;;;4.50;;
65558;SDS011;52203;51.998;5.140;2023-08-06T02:03:28;6.60;;;4.70;;
65558;SDS011;52203;51.998;5.140;2023-08-06T02:05:54;7.47;;;4.50;;
65558;SDS011;52203;51.998;5.140;2023-08-06T02:08:20;10.20;;;4.88;;
65558;SDS011;52203;51.998;5.140;2023-08-06T02:10:46;10.20;;;5.20;;
65558;SDS011;52203;51.998;5.140;2023-08-06T02:13:11;7.57;;;4.75;;
65558;SDS011;52203;51.998;5.140;2023-08-06T02:15:43;7.53;;;4.32;;
65558;SDS011;52203;51.998;5.140;2023-08-06T02:18:09;8.77;;;4.90;;
65558;SDS011;52203;51.998;5.140;2023-08-06T02:20:35;8.57;;;4.55;;
65558;SDS011;52203;51.998;5.140;2023-08-06T02:23:02;8.27;;;5.07;;
65558;SDS011;52203;51.998;5.140;2023-08-06T02:25:27;8.93;;;5.10;;
65558;SDS011;52203;51.998;5.140;2023-08-06T02:27:53;9.07;;;4.28;;
65558;SDS011;52203;51.998;5.140;2023-08-06T02:30:18;7.57;;;4.85;;
65558;SDS011;52203;51.998;5.140;2023-08-06T02:32:44;7.53;;;4.50;;
65558;SDS011;52203;51.998;5.140;2023-08-06T02:35:09;9.85;;;4.30;;
65558;SDS011;52203;51.998;5.140;2023-08-06T02:37:35;8.88;;;5.20;;
65558;SDS011;52203;51.998;5.140;2023-08-06T02:40:01;8.30;;;4.60;;
65558;SDS011;52203;51.998;5.140;2023-08-06T02:42:27;6.78;;;4.18;;
65558;SDS011;52203;51.998;5.140;2023-08-06T02:44:53;6.88;;;4.60;;
65558;SDS011;52203;51.998;5.140;2023-08-06T02:47:21;10.43;;;4.78;;
65558;SDS011;52203;51.998;5.140;2023-08-06T02:49:47;8.60;;;4.45;;
65558;SDS011;52203;51.998;5.140;2023-08-06T02:52:12;7.13;;;4.72;;
65558;SDS011;52203;51.998;5.140;2023-08-06T02:54:38;8.77;;;5.05;;
65558;SDS011;52203;51.998;5.140;2023-08-06T02:57:04;9.73;;;5.28;;
65558;SDS011;52203;51.998;5.140;2023-08-06T02:59:30;7.90;;;4.68;;
65558;SDS011;52203;51.998;5.140;2023-08-06T03:01:56;7.97;;;4.32;;
65558;SDS011;52203;51.998;5.140;2023-08-06T03:04:22;9.32;;;4.80;;
65558;SDS011;52203;51.998;5.140;2023-08-06T03:06:50;9.20;;;5.03;;
65558;SDS011;52203;51.998;5.140;2023-08-06T03:09:16;9.00;;;5.10;;
65558;SDS011;52203;51.998;5.140;2023-08-06T03:11:42;8.27;;;5.20;;
65558;SDS011;52203;51.998;5.140;2023-08-06T03:14:08;8.05;;;5.13;;
65558;SDS011;52203;51.998;5.140;2023-08-06T03:16:34;10.05;;;5.85;;
65558;SDS011;52203;51.998;5.140;2023-08-06T03:18:59;9.15;;;5.82;;
65558;SDS011;52203;51.998;5.140;2023-08-06T03:21:25;10.15;;;5.90;;
65558;SDS011;52203;51.998;5.140;2023-08-06T03:23:50;9.13;;;5.40;;
65558;SDS011;52203;51.998;5.140;2023-08-06T03:26:16;9.70;;;5.97;;
65558;SDS011;52203;51.998;5.140;2023-08-06T03:28:41;10.10;;;5.93;;
65558;SDS011;52203;51.998;5.140;2023-08-06T03:31:07;10.02;;;6.20;;
65558;SDS011;52203;51.998;5.140;2023-08-06T03:33:33;9.10;;;5.65;;
65558;SDS011;52203;51.998;5.140;2023-08-06T03:35:59;12.50;;;5.47;;
65558;SDS011;52203;51.998;5.140;2023-08-06T03:38:24;10.43;;;5.53;;
65558;SDS011;52203;51.998;5.140;2023-08-06T03:40:50;8.68;;;5.35;;
65558;SDS011;52203;51.998;5.140;2023-08-06T03:43:15;9.82;;;5.78;;
65558;SDS011;52203;51.998;5.140;2023-08-06T03:45:41;11.20;;;6.40;;
65558;SDS011;52203;51.998;5.140;2023-08-06T03:48:07;10.02;;;6.10;;
65558;SDS011;52203;51.998;5.140;2023-08-06T03:50:33;10.98;;;6.57;;
65558;SDS011;52203;51.998;5.140;2023-08-06T03:52:58;10.40;;;6.18;;
65558;SDS011;52203;51.998;5.140;2023-08-06T03:55:24;10.10;;;5.70;;
65558;SDS011;52203;51.998;5.140;2023-08-06T03:57:49;11.70;;;6.50;;
65558;SDS011;52203;51.998;5.140;2023-08-06T04:00:15;12.00;;;6.45;;
65558;SDS011;52203;51.998;5.140;2023-08-06T04:02:41;13.07;;;6.38;;
65558;SDS011;52203;51.998;5.140;2023-08-06T04:05:06;10.25;;;6.28;;
65558;SDS011;52203;51.998;5.140;2023-08-06T04:07:32;10.85;;;7.13;;
65558;SDS011;52203;51.998;5.140;2023-08-06T04:09:58;12.80;;;7.40;;
65558;SDS011;52203;51.998;5.140;2023-08-06T04:12:28;13.23;;;7.10;;
65558;SDS011;52203;51.998;5.140;2023-08-06T04:14:55;11.52;;;7.53;;
65558;SDS011;52203;51.998;5.140;2023-08-06T04:17:22;14.32;;;7.72;;
65558;SDS011;52203;51.998;5.140;2023-08-06T04:19:52;13.63;;;7.43;;
65558;SDS011;52203;51.998;5.140;2023-08-06T04:22:19;12.35;;;7.72;;
65558;SDS011;52203;51.998;5.140;2023-08-06T04:24:45;11.15;;;7.20;;
65558;SDS011;52203;51.998;5.140;2023-08-06T04:27:11;12.73;;;7.60;;
65558;SDS011;52203;51.998;5.140;2023-08-06T04:29:37;13.48;;;8.20;;
65558;SDS011;52203;51.998;5.140;2023-08-06T04:32:07;12.38;;;7.60;;
65558;SDS011;52203;51.998;5.140;2023-08-06T04:34:34;15.52;;;8.30;;
65558;SDS011;52203;51.998;5.140;2023-08-06T04:37:01;11.60;;;7.22;;
65558;SDS011;52203;51.998;5.140;2023-08-06T04:39:27;13.40;;;7.93;;
65558;SDS011;52203;51.998;5.140;2023-08-06T04:41:53;13.38;;;8.35;;
65558;SDS011;52203;51.998;5.140;2023-08-06T04:44:18;15.70;;;9.02;;
65558;SDS011;52203;51.998;5.140;2023-08-06T04:46:44;14.52;;;8.65;;
65558;SDS011;52203;51.998;5.140;2023-08-06T04:49:09;15.30;;;8.75;;
65558;SDS011;52203;51.998;5.140;2023-08-06T04:51:35;15.10;;;8.90;;
65558;SDS011;52203;51.998;5.140;2023-08-06T04:54:01;15.35;;;8.63;;
65558;SDS011;52203;51.998;5.140;2023-08-06T04:56:26;15.10;;;8.40;;
65558;SDS011;52203;51.998;5.140;2023-08-06T04:58:52;17.10;;;9.13;;
65558;SDS011;52203;51.998;5.140;2023-08-06T05:01:18;15.40;;;8.88;;
65558;SDS011;52203;51.998;5.140;2023-08-06T05:03:44;15.05;;;9.07;;
65558;SDS011;52203;51.998;5.140;2023-08-06T05:06:09;15.38;;;8.68;;
65558;SDS011;52203;51.998;5.140;2023-08-06T05:08:35;15.38;;;8.85;;
65558;SDS011;52203;51.998;5.140;2023-08-06T05:11:01;15.60;;;9.10;;
65558;SDS011;52203;51.998;5.140;2023-08-06T05:13:27;16.67;;;9.60;;
65558;SDS011;52203;51.998;5.140;2023-08-06T05:15:53;15.95;;;9.38;;
65558;SDS011;52203;51.998;5.140;2023-08-06T05:18:19;16.27;;;9.00;;
65558;SDS011;52203;51.998;5.140;2023-08-06T05:20:44;15.77;;;9.45;;
65558;SDS011;52203;51.998;5.140;2023-08-06T05:23:10;16.25;;;9.52;;
65558;SDS011;52203;51.998;5.140;2023-08-06T05:25:35;12.88;;;8.50;;
65558;SDS011;52203;51.998;5.140;2023-08-06T05:28:02;14.25;;;8.98;;
65558;SDS011;52203;51.998;5.140;2023-08-06T05:30:28;13.80;;;7.80;;
65558;SDS011;52203;51.998;5.140;2023-08-06T05:32:53;17.52;;;8.70;;
65558;SDS011;52203;51.998;5.140;2023-08-06T05:35:20;16.10;;;8.80;;
65558;SDS011;52203;51.998;5.140;2023-08-06T05:37:46;14.93;;;8.60;;
65558;SDS011;52203;51.998;5.140;2023-08-06T05:40:11;15.30;;;7.75;;
65558;SDS011;52203;51.998;5.140;2023-08-06T05:42:37;15.18;;;8.93;;
65558;SDS011;52203;51.998;5.140;2023-08-06T05:45:03;13.98;;;8.13;;
65558;SDS011;52203;51.998;5.140;2023-08-06T05:47:28;14.02;;;7.95;;
65558;SDS011;52203;51.998;5.140;2023-08-06T05:49:54;13.57;;;7.45;;
65558;SDS011;52203;51.998;5.140;2023-08-06T05:52:19;15.23;;;8.13;;
65558;SDS011;52203;51.998;5.140;2023-08-06T05:54:45;11.05;;;7.22;;
65558;SDS011;52203;51.998;5.140;2023-08-06T05:57:11;12.35;;;6.60;;
65558;SDS011;52203;51.998;5.140;2023-08-06T05:59:36;10.65;;;6.43;;
65558;SDS011;52203;51.998;5.140;2023-08-06T06:02:02;11.63;;;6.35;;
65558;SDS011;52203;51.998;5.140;2023-08-06T06:04:27;10.18;;;5.93;;
65558;SDS011;52203;51.998;5.140;2023-08-06T06:06:53;9.20;;;5.47;;
65558;SDS011;52203;51.998;5.140;2023-08-06T06:09:18;9.77;;;5.55;;
65558;SDS011;52203;51.998;5.140;2023-08-06T06:11:44;9.60;;;5.72;;
65558;SDS011;52203;51.998;5.140;2023-08-06T06:14:10;9.52;;;5.40;;
65558;SDS011;52203;51.998;5.140;2023-08-06T06:16:35;8.98;;;5.47;;
65558;SDS011;52203;51.998;5.140;2023-08-06T06:19:01;10.10;;;5.40;;
65558;SDS011;52203;51.998;5.140;2023-08-06T06:21:26;5.78;;;3.45;;
65558;SDS011;52203;51.998;5.140;2023-08-06T06:23:52;4.35;;;2.50;;
65558;SDS011;52203;51.998;5.140;2023-08-06T06:26:20;4.53;;;2.47;;
65558;SDS011;52203;51.998;5.140;2023-08-06T06:28:46;3.67;;;2.10;;
65558;SDS011;52203;51.998;5.140;2023-08-06T06:31:11;3.08;;;1.95;;
65558;SDS011;52203;51.998;5.140;2023-08-06T06:33:37;3.45;;;2.00;;
65558;SDS011;52203;51.998;5.140;2023-08-06T06:36:03;3.88;;;2.17;;
65558;SDS011;52203;51.998;5.140;2023-08-06T06:38:29;4.30;;;2.20;;
65558;SDS011;52203;51.998;5.140;2023-08-06T06:40:55;3.58;;;2.10;;
65558;SDS011;52203;51.998;5.140;2023-08-06T06:43:21;3.65;;;2.00;;
65558;SDS011;52203;51.998;5.140;2023-08-06T06:45:52;5.15;;;2.25;;
65558;SDS011;52203;51.998;5.140;2023-08-06T06:48:18;3.47;;;2.10;;
65558;SDS011;52203;51.998;5.140;2023-08-06T06:50:47;4.35;;;2.33;;
65558;SDS011;52203;51.998;5.140;2023-08-06T06:53:13;4.03;;;2.20;;
65558;SDS011;52203;51.998;5.140;2023-08-06T06:55:39;3.72;;;2.50;;
65558;SDS011;52203;51.998;5.140;2023-08-06T06:58:04;4.68;;;2.60;;
65558;SDS011;52203;51.998;5.140;2023-08-06T07:00:30;6.25;;;3.08;;
65558;SDS011;52203;51.998;5.140;2023-08-06T07:02:55;5.20;;;3.10;;
65558;SDS011;52203;51.998;5.140;2023-08-06T07:05:21;6.85;;;3.55;;
65558;SDS011;52203;51.998;5.140;2023-08-06T07:07:46;5.57;;;3.22;;
65558;SDS011;52203;51.998;5.140;2023-08-06T07:10:12;6.13;;;3.83;;
65558;SDS011;52203;51.998;5.140;2023-08-06T07:12:37;7.18;;;4.15;;
65558;SDS011;52203;51.998;5.140;2023-08-06T07:15:04;5.53;;;3.50;;
65558;SDS011;52203;51.998;5.140;2023-08-06T07:17:31;6.55;;;4.03;;
65558;SDS011;52203;51.998;5.140;2023-08-06T07:19:56;7.38;;;4.03;;
65558;SDS011;52203;51.998;5.140;2023-08-06T07:22:22;6.53;;;4.00;;
65558;SDS011;52203;51.998;5.140;2023-08-06T07:24:47;7.75;;;4.15;;
65558;SDS011;52203;51.998;5.140;2023-08-06T07:27:13;8.63;;;5.63;;
65558;SDS011;52203;51.998;5.140;2023-08-06T07:29:39;6.53;;;3.88;;
65558;SDS011;52203;51.998;5.140;2023-08-06T07:32:05;6.13;;;3.78;;
65558;SDS011;52203;51.998;5.140;2023-08-06T07:34:32;5.15;;;3.63;;
65558;SDS011;52203;51.998;5.140;2023-08-06T07:36:58;6.53;;;3.50;;
65558;SDS011;52203;51.998;5.140;2023-08-06T07:39:23;6.47;;;3.80;;
65558;SDS011;52203;51.998;5.140;2023-08-06T07:41:49;5.65;;;3.30;;
65558;SDS011;52203;51.998;5.140;2023-08-06T07:44:15;5.53;;;3.40;;
65558;SDS011;52203;51.998;5.140;2023-08-06T07:46:40;5.85;;;3.85;;
65558;SDS011;52203;51.998;5.140;2023-08-06T07:49:06;6.40;;;3.78;;
65558;SDS011;52203;51.998;5.140;2023-08-06T07:51:32;6.95;;;3.83;;
65558;SDS011;52203;51.998;5.140;2023-08-06T07:53:57;6.88;;;3.50;;
65558;SDS011;52203;51.998;5.140;2023-08-06T07:56:23;6.03;;;3.42;;
65558;SDS011;52203;51.998;5.140;2023-08-06T07:58:48;7.00;;;3.55;;
65558;SDS011;52203;51.998;5.140;2023-08-06T08:01:14;6.13;;;3.55;;
65558;SDS011;52203;51.998;5.140;2023-08-06T08:03:39;6.10;;;4.03;;
65558;SDS011;52203;51.998;5.140;2023-08-06T08:06:05;7.28;;;4.40;;
65558;SDS011;52203;51.998;5.140;2023-08-06T08:08:30;5.95;;;3.70;;
65558;SDS011;52203;51.998;5.140;2023-08-06T08:10:57;7.15;;;4.13;;
65558;SDS011;52203;51.998;5.140;2023-08-06T08:13:24;7.80;;;4.55;;
65558;SDS011;52203;51.998;5.140;2023-08-06T08:15:49;12.50;;;4.25;;
65558;SDS011;52203;51.998;5.140;2023-08-06T08:18:15;8.95;;;4.65;;
65558;SDS011;52203;51.998;5.140;2023-08-06T08:20:40;6.95;;;4.20;;
65558;SDS011;52203;51.998;5.140;2023-08-06T08:23:06;8.93;;;4.47;;
65558;SDS011;52203;51.998;5.140;2023-08-06T08:25:32;8.65;;;4.45;;
65558;SDS011;52203;51.998;5.140;2023-08-06T08:27:59;7.35;;;4.53;;
65558;SDS011;52203;51.998;5.140;2023-08-06T08:30:24;8.65;;;4.90;;
65558;SDS011;52203;51.998;5.140;2023-08-06T08:32:50;9.05;;;5.07;;
65558;SDS011;52203;51.998;5.140;2023-08-06T08:35:16;7.75;;;4.70;;
65558;SDS011;52203;51.998;5.140;2023-08-06T08:37:42;9.30;;;4.63;;
65558;SDS011;52203;51.998;5.140;2023-08-06T08:40:08;8.48;;;4.75;;
65558;SDS011;52203;51.998;5.140;2023-08-06T08:42:35;8.23;;;4.95;;
65558;SDS011;52203;51.998;5.140;2023-08-06T08:45:02;9.93;;;5.07;;
65558;SDS011;52203;51.998;5.140;2023-08-06T08:47:29;8.02;;;4.85;;
65558;SDS011;52203;51.998;5.140;2023-08-06T08:49:56;7.28;;;4.40;;
65558;SDS011;52203;51.998;5.140;2023-08-06T08:52:22;10.48;;;4.82;;
65558;SDS011;52203;51.998;5.140;2023-08-06T08:54:50;9.23;;;4.70;;
65558;SDS011;52203;51.998;5.140;2023-08-06T08:57:17;10.00;;;5.43;;
65558;SDS011;52203;51.998;5.140;2023-08-06T08:59:43;9.55;;;5.05;;
65558;SDS011;52203;51.998;5.140;2023-08-06T09:02:10;13.00;;;5.18;;
65558;SDS011;52203;51.998;5.140;2023-08-06T09:04:37;8.45;;;4.22;;
65558;SDS011;52203;51.998;5.140;2023-08-06T09:07:05;7.32;;;3.90;;
65558;SDS011;52203;51.998;5.140;2023-08-06T09:09:33;6.95;;;3.50;;
65558;SDS011;52203;51.998;5.140;2023-08-06T09:12:05;8.43;;;3.38;;
65558;SDS011;52203;51.998;5.140;2023-08-06T09:14:37;7.30;;;3.20;;
65558;SDS011;52203;51.998;5.140;2023-08-06T09:17:03;5.57;;;3.08;;
65558;SDS011;52203;51.998;5.140;2023-08-06T09:19:30;8.13;;;3.75;;
65558;SDS011;52203;51.998;5.140;2023-08-06T09:21:56;6.78;;;3.15;;
65558;SDS011;52203;51.998;5.140;2023-08-06T09:24:22;6.35;;;3.10;;
65558;SDS011;52203;51.998;5.140;2023-08-06T09:26:48;9.43;;;2.95;;
65558;SDS011;52203;51.998;5.140;2023-08-06T09:29:13;6.15;;;3.00;;
65558;SDS011;52203;51.998;5.140;2023-08-06T09:34:14;4.22;;;2.17;;
65558;SDS011;52203;51.998;5.140;2023-08-06T09:36:50;7.35;;;2.38;;
65558;SDS011;52203;51.998;5.140;2023-08-06T09:39:19;6.03;;;2.50;;
65558;SDS011;52203;51.998;5.140;2023-08-06T09:41:55;4.90;;;2.25;;
65558;SDS011;52203;51.998;5.140;2023-08-06T09:44:25;4.57;;;2.03;;
65558;SDS011;52203;51.998;5.140;2023-08-06T09:46:53;4.82;;;2.13;;
65558;SDS011;52203;51.998;5.140;2023-08-06T09:49:20;5.20;;;1.92;;
65558;SDS011;52203;51.998;5.140;2023-08-06T09:51:51;4.15;;;2.58;;
65558;SDS011;52203;51.998;5.140;2023-08-06T09:54:20;5.03;;;1.80;;
65558;SDS011;52203;51.998;5.140;2023-08-06T09:56:48;4.30;;;1.85;;
65558;SDS011;52203;51.998;5.140;2023-08-06T09:59:13;4.82;;;1.60;;
65558;SDS011;52203;51.998;5.140;2023-08-06T10:01:41;5.97;;;1.60;;
65558;SDS011;52203;51.998;5.140;2023-08-06T10:04:07;3.65;;;1.20;;
65558;SDS011;52203;51.998;5.140;2023-08-06T10:06:37;3.92;;;1.38;;
65558;SDS011;52203;51.998;5.140;2023-08-06T10:09:03;2.67;;;1.20;;
65558;SDS011;52203;51.998;5.140;2023-08-06T10:11:29;2.50;;;1.40;;
65558;SDS011;52203;51.998;5.140;2023-08-06T10:14:04;5.60;;;1.70;;
65558;SDS011;52203;51.998;5.140;2023-08-06T10:16:51;2.95;;;1.30;;
65558;SDS011;52203;51.998;5.140;2023-08-06T10:19:17;2.90;;;1.33;;
65558;SDS011;52203;51.998;5.140;2023-08-06T10:24:49;1.98;;;1.15;;
65558;SDS011;52203;51.998;5.140;2023-08-06T10:27:20;2.90;;;1.30;;
65558;SDS011;52203;51.998;5.140;2023-08-06T10:29:54;3.05;;;1.40;;
65558;SDS011;52203;51.998;5.140;2023-08-06T10:32:20;4.38;;;1.55;;
65558;SDS011;52203;51.998;5.140;2023-08-06T10:34:56;4.20;;;1.33;;
65558;SDS011;52203;51.998;5.140;2023-08-06T10:37:23;2.78;;;1.30;;
65558;SDS011;52203;51.998;5.140;2023-08-06T10:39:51;4.88;;;1.42;;
65558;SDS011;52203;51.998;5.140;2023-08-06T10:42:26;4.03;;;1.65;;
65558;SDS011;52203;51.998;5.140;2023-08-06T10:47:41;4.50;;;1.80;;
65558;SDS011;52203;51.998;5.140;2023-08-06T10:50:10;4.70;;;1.48;;
65558;SDS011;52203;51.998;5.140;2023-08-06T10:52:38;2.35;;;1.25;;
65558;SDS011;52203;51.998;5.140;2023-08-06T10:55:04;4.43;;;1.38;;
65558;SDS011;52203;51.998;5.140;2023-08-06T10:57:30;5.53;;;1.50;;
65558;SDS011;52203;51.998;5.140;2023-08-06T10:59:55;3.17;;;1.40;;
65558;SDS011;52203;51.998;5.140;2023-08-06T11:02:21;3.92;;;1.48;;
65558;SDS011;52203;51.998;5.140;2023-08-06T11:04:47;6.25;;;1.50;;
65558;SDS011;52203;51.998;5.140;2023-08-06T11:07:13;4.63;;;1.55;;
65558;SDS011;52203;51.998;5.140;2023-08-06T11:09:39;4.93;;;1.90;;
65558;SDS011;52203;51.998;5.140;2023-08-06T11:12:10;6.22;;;1.85;;
65558;SDS011;52203;51.998;5.140;2023-08-06T11:14:36;5.13;;;1.55;;
65558;SDS011;52203;51.998;5.140;2023-08-06T11:17:03;5.68;;;1.70;;
65558;SDS011;52203;51.998;5.140;2023-08-06T11:19:30;3.88;;;1.83;;
65558;SDS011;52203;51.998;5.140;2023-08-06T11:21:55;2.90;;;1.40;;
65558;SDS011;52203;51.998;5.140;2023-08-06T11:24:22;6.30;;;1.90;;
65558;SDS011;52203;51.998;5.140;2023-08-06T11:26:49;4.80;;;1.58;;
65558;SDS011;52203;51.998;5.140;2023-08-06T11:29:15;7.72;;;1.48;;
65558;SDS011;52203;51.998;5.140;2023-08-06T11:31:41;4.80;;;1.73;;
65558;SDS011;52203;51.998;5.140;2023-08-06T11:34:06;3.83;;;1.70;;
65558;SDS011;52203;51.998;5.140;2023-08-06T11:36:36;5.15;;;1.90;;
65558;SDS011;52203;51.998;5.140;2023-08-06T11:39:06;4.55;;;1.85;;
65558;SDS011;52203;51.998;5.140;2023-08-06T11:41:32;5.20;;;1.92;;
65558;SDS011;52203;51.998;5.140;2023-08-06T11:43:58;3.85;;;1.63;;
65558;SDS011;52203;51.998;5.140;2023-08-06T11:46:24;4.80;;;1.67;;
65558;SDS011;52203;51.998;5.140;2023-08-06T11:48:54;3.28;;;1.48;;
65558;SDS011;52203;51.998;5.140;2023-08-06T11:51:27;4.68;;;1.52;;
65558;SDS011;52203;51.998;5.140;2023-08-06T11:53:56;5.25;;;1.60;;
65558;SDS011;52203;51.998;5.140;2023-08-06T11:56:23;4.22;;;1.85;;
65558;SDS011;52203;51.998;5.140;2023-08-06T11:58:50;5.15;;;1.95;;
65558;SDS011;52203;51.998;5.140;2023-08-06T12:01:15;5.72;;;1.60;;
65558;SDS011;52203;51.998;5.140;2023-08-06T12:03:41;2.88;;;1.50;;
65558;SDS011;52203;51.998;5.140;2023-08-06T12:06:07;2.08;;;1.05;;
65558;SDS011;52203;51.998;5.140;2023-08-06T12:08:33;3.88;;;1.30;;
65558;SDS011;52203;51.998;5.140;2023-08-06T12:10:58;3.20;;;1.42;;
65558;SDS011;52203;51.998;5.140;2023-08-06T12:13:24;3.03;;;1.17;;
65558;SDS011;52203;51.998;5.140;2023-08-06T12:15:50;3.67;;;1.30;;
65558;SDS011;52203;51.998;5.140;2023-08-06T12:18:17;2.63;;;1.08;;
65558;SDS011;52203;51.998;5.140;2023-08-06T12:20:43;3.90;;;1.27;;
65558;SDS011;52203;51.998;5.140;2023-08-06T12:23:09;4.20;;;1.33;;
65558;SDS011;52203;51.998;5.140;2023-08-06T12:25:35;3.88;;;1.30;;
65558;SDS011;52203;51.998;5.140;2023-08-06T12:28:00;4.88;;;1.50;;
65558;SDS011;52203;51.998;5.140;2023-08-06T12:30:26;3.67;;;1.20;;
65558;SDS011;52203;51.998;5.140;2023-08-06T12:32:52;2.72;;;1.30;;
65558;SDS011;52203;51.998;5.140;2023-08-06T12:35:17;5.93;;;1.20;;
65558;SDS011;52203;51.998;5.140;2023-08-06T12:37:43;2.85;;;1.40;;
65558;SDS011;52203;51.998;5.140;2023-08-06T12:40:10;3.88;;;1.33;;
65558;SDS011;52203;51.998;5.140;2023-08-06T12:42:36;6.05;;;1.40;;
65558;SDS011;52203;51.998;5.140;2023-08-06T12:45:01;4.88;;;1.50;;
65558;SDS011;52203;51.998;5.140;2023-08-06T12:47:27;3.08;;;1.40;;
65558;SDS011;52203;51.998;5.140;2023-08-06T12:49:53;3.83;;;1.27;;
65558;SDS011;52203;51.998;5.140;2023-08-06T12:52:18;2.92;;;1.33;;
65558;SDS011;52203;51.998;5.140;2023-08-06T12:54:45;4.50;;;0.90;;
65558;SDS011;52203;51.998;5.140;2023-08-06T12:57:11;2.65;;;1.10;;
65558;SDS011;52203;51.998;5.140;2023-08-06T12:59:37;2.53;;;1.35;;
65558;SDS011;52203;51.998;5.140;2023-08-06T13:02:02;1.70;;;1.10;;
65558;SDS011;52203;51.998;5.140;2023-08-06T13:04:29;1.83;;;1.10;;
65558;SDS011;52203;51.998;5.140;2023-08-06T13:06:54;3.03;;;1.10;;
65558;SDS011;52203;51.998;5.140;2023-08-06T13:09:20;2.80;;;1.35;;
65558;SDS011;52203;51.998;5.140;2023-08-06T13:11:46;2.00;;;0.93;;
65558;SDS011;52203;51.998;5.140;2023-08-06T13:14:15;2.50;;;1.05;;
65558;SDS011;52203;51.998;5.140;2023-08-06T13:16:41;2.08;;;0.98;;
65558;SDS011;52203;51.998;5.140;2023-08-06T13:19:08;2.13;;;1.20;;
65558;SDS011;52203;51.998;5.140;2023-08-06T13:21:35;2.53;;;1.10;;
65558;SDS011;52203;51.998;5.140;2023-08-06T13:24:20;2.70;;;1.00;;
65558;SDS011;52203;51.998;5.140;2023-08-06T13:26:46;2.67;;;1.30;;
65558;SDS011;52203;51.998;5.140;2023-08-06T13:29:12;2.42;;;0.90;;
65558;SDS011;52203;51.998;5.140;2023-08-06T13:31:37;1.60;;;1.00;;
65558;SDS011;52203;51.998;5.140;2023-08-06T13:34:03;3.22;;;1.23;;
65558;SDS011;52203;51.998;5.140;2023-08-06T13:36:29;3.25;;;1.33;;
65558;SDS011;52203;51.998;5.140;2023-08-06T13:38:56;2.30;;;0.98;;
65558;SDS011;52203;51.998;5.140;2023-08-06T13:41:22;4.70;;;1.17;;
65558;SDS011;52203;51.998;5.140;2023-08-06T13:43:48;2.55;;;1.00;;
65558;SDS011;52203;51.998;5.140;2023-08-06T13:46:14;3.58;;;1.10;;
65558;SDS011;52203;51.998;5.140;2023-08-06T13:48:43;1.90;;;1.05;;
65558;SDS011;52203;51.998;5.140;2023-08-06T13:51:09;2.60;;;1.67;;
65558;SDS011;52203;51.998;5.140;2023-08-06T13:53:36;4.47;;;1.35;;
65558;SDS011;52203;51.998;5.140;2023-08-06T13:56:02;1.88;;;0.88;;
65558;SDS011;52203;51.998;5.140;2023-08-06T13:58:29;2.60;;;0.98;;
65558;SDS011;52203;51.998;5.140;2023-08-06T14:00:54;1.75;;;0.90;;
65558;SDS011;52203;51.998;5.140;2023-08-06T14:03:21;2.08;;;1.10;;
65558;SDS011;52203;51.998;5.140;2023-08-06T14:05:47;1.85;;;1.00;;
65558;SDS011;52203;51.998;5.140;2023-08-06T14:08:13;1.27;;;0.90;;
65558;SDS011;52203;51.998;5.140;2023-08-06T14:10:38;3.22;;;1.00;;
65558;SDS011;52203;51.998;5.140;2023-08-06T14:13:04;2.20;;;1.00;;
65558;SDS011;52203;51.998;5.140;2023-08-06T14:15:30;2.70;;;1.13;;
65558;SDS011;52203;51.998;5.140;2023-08-06T14:17:55;1.88;;;1.02;;
65558;SDS011;52203;51.998;5.140;2023-08-06T14:20:21;3.47;;;1.05;;
65558;SDS011;52203;51.998;5.140;2023-08-06T14:22:46;1.52;;;0.90;;
65558;SDS011;52203;51.998;5.140;2023-08-06T14:25:12;1.80;;;0.93;;
65558;SDS011;52203;51.998;5.140;2023-08-06T14:27:37;2.67;;;1.20;;
65558;SDS011;52203;51.998;5.140;2023-08-06T14:30:05;2.80;;;1.13;;
65558;SDS011;52203;51.998;5.140;2023-08-06T14:32:31;4.32;;;1.10;;
65558;SDS011;52203;51.998;5.140;2023-08-06T14:34:57;2.45;;;1.08;;
65558;SDS011;52203;51.998;5.140;2023-08-06T14:37:23;3.78;;;1.35;;
65558;SDS011;52203;51.998;5.140;2023-08-06T14:39:50;2.85;;;1.25;;
65558;SDS011;52203;51.998;5.140;2023-08-06T14:42:16;2.00;;;1.00;;
65558;SDS011;52203;51.998;5.140;2023-08-06T14:44:42;2.65;;;1.20;;
65558;SDS011;52203;51.998;5.140;2023-08-06T14:47:07;3.05;;;1.20;;
65558;SDS011;52203;51.998;5.140;2023-08-06T14:49:33;2.67;;;1.08;;
65558;SDS011;52203;51.998;5.140;2023-08-06T14:51:58;3.80;;;0.90;;
65558;SDS011;52203;51.998;5.140;2023-08-06T14:54:25;2.50;;;0.60;;
65558;SDS011;52203;51.998;5.140;2023-08-06T14:56:52;7.07;;;1.00;;
65558;SDS011;52203;51.998;5.140;2023-08-06T14:59:18;3.53;;;0.80;;
65558;SDS011;52203;51.998;5.140;2023-08-06T15:01:43;7.32;;;0.95;;